Time;durP1;ratioP1;P1;durP2;ratioP2;P2;SDS_P1;SDS_P2;PMS_P1;PMS_P2;Temp;Humidity;BMP_temperature;BMP_pressure;BME280_temperature;BME280_humidity;BME280_pressure;Samples;Min_cycle;Max_cycle;Signal;HPM_P1;HPM_P2
2021/10/05 00:00:12;;;;;;;5.68;1.50;;;;;;;;;;5014925;28;20054;-65
2021/10/05 00:02:58;;;;;;;4.93;1.58;;;;;;;;;;5015020;28;20042;-65
2021/10/05 00:05:43;;;;;;;4.55;1.50;;;;;;;;;;5014783;28;20069;-65
2021/10/05 00:08:28;;;;;;;4.90;1.20;;;;;;;;;;5014716;28;20050;-65
2021/10/05 00:11:14;;;;;;;7.90;1.90;;;;;;;;;;5014935;28;20057;-65
2021/10/05 00:13:59;;;;;;;3.65;1.20;;;;;;;;;;5012776;28;20532;-65
2021/10/05 00:16:44;;;;;;;4.50;1.20;;;;;;;;;;5014673;28;20444;-65
2021/10/05 00:19:29;;;;;;;5.20;1.83;;;;;;;;;;5014592;28;20054;-65
2021/10/05 00:22:14;;;;;;;4.65;1.52;;;;;;;;;;5014557;28;20054;-65
2021/10/05 00:25:00;;;;;;;4.15;1.48;;;;;;;;;;5014228;28;20057;-65
2021/10/05 00:27:45;;;;;;;6.28;1.38;;;;;;;;;;5006193;28;20050;-65
2021/10/05 00:30:30;;;;;;;4.97;1.40;;;;;;;;;;4994866;28;20129;-65
2021/10/05 00:33:16;;;;;;;5.10;1.45;;;;;;;;;;4994733;28;20509;-65
2021/10/05 00:36:01;;;;;;;3.22;1.60;;;;;;;;;;4994916;28;20054;-65
2021/10/05 00:38:46;;;;;;;4.95;1.65;;;;;;;;;;4994729;28;20066;-65
2021/10/05 00:41:31;;;;;;;5.45;1.83;;;;;;;;;;4994729;28;20054;-65
2021/10/05 00:44:17;;;;;;;7.47;1.58;;;;;;;;;;4994603;28;20086;-65
2021/10/05 00:47:05;;;;;;;2.92;1.85;;;;;;;;;;4994701;28;20054;-65
2021/10/05 00:49:51;;;;;;;4.32;1.25;;;;;;;;;;4994464;28;20051;-64
2021/10/05 00:52:36;;;;;;;8.07;2.40;;;;;;;;;;4993800;28;20054;-65
2021/10/05 00:55:22;;;;;;;7.95;1.38;;;;;;;;;;4994302;28;20054;-65
2021/10/05 00:58:07;;;;;;;4.20;1.30;;;;;;;;;;5002202;28;20057;-65
2021/10/05 01:00:52;;;;;;;2.63;1.60;;;;;;;;;;5013835;28;20050;-65
2021/10/05 01:03:37;;;;;;;5.60;1.63;;;;;;;;;;5013589;28;20054;-65
2021/10/05 01:06:23;;;;;;;1.92;1.35;;;;;;;;;;5013841;28;20420;-65
2021/10/05 01:09:08;;;;;;;3.28;1.92;;;;;;;;;;5013794;28;20053;-64
2021/10/05 01:11:53;;;;;;;6.35;1.55;;;;;;;;;;5013731;28;20054;-65
2021/10/05 01:14:39;;;;;;;3.58;1.42;;;;;;;;;;5013338;28;20046;-65
2021/10/05 01:17:24;;;;;;;5.97;1.75;;;;;;;;;;5012490;28;20427;-65
2021/10/05 01:20:09;;;;;;;5.70;1.95;;;;;;;;;;5012180;28;20508;-65
2021/10/05 01:22:54;;;;;;;5.88;1.70;;;;;;;;;;5013294;28;20459;-65
2021/10/05 01:25:40;;;;;;;6.95;2.03;;;;;;;;;;5013061;28;20053;-65
2021/10/05 01:28:25;;;;;;;4.43;2.10;;;;;;;;;;4997735;28;20054;-65
2021/10/05 01:31:10;;;;;;;8.07;2.20;;;;;;;;;;4993775;28;20051;-65
2021/10/05 01:33:56;;;;;;;6.38;2.30;;;;;;;;;;4993368;28;20058;-65
2021/10/05 01:36:41;;;;;;;5.57;2.53;;;;;;;;;;4993761;28;20055;-65
2021/10/05 01:39:27;;;;;;;7.97;2.30;;;;;;;;;;4993624;28;20097;-65
2021/10/05 01:42:13;;;;;;;8.95;3.47;;;;;;;;;;4993449;28;20412;-65
2021/10/05 01:44:59;;;;;;;4.32;2.20;;;;;;;;;;4993396;28;20097;-67
2021/10/05 01:47:44;;;;;;;7.05;2.30;;;;;;;;;;4993410;28;20105;-66
2021/10/05 01:50:29;;;;;;;7.28;2.53;;;;;;;;;;4993382;28;20629;-66
2021/10/05 01:53:14;;;;;;;6.85;2.80;;;;;;;;;;4993343;28;20058;-66
2021/10/05 01:56:00;;;;;;;5.10;2.40;;;;;;;;;;4993406;28;20054;-66
2021/10/05 01:58:45;;;;;;;4.22;2.50;;;;;;;;;;5008475;28;20124;-66
2021/10/05 02:01:30;;;;;;;5.97;2.70;;;;;;;;;;5013017;28;20054;-66
2021/10/05 02:04:15;;;;;;;7.50;2.78;;;;;;;;;;5012473;28;20058;-65
2021/10/05 02:07:01;;;;;;;5.90;2.70;;;;;;;;;;5012727;28;20108;-66
2021/10/05 02:09:50;;;;;;;4.03;2.78;;;;;;;;;;5012805;28;20046;-66
2021/10/05 02:12:35;;;;;;;5.78;2.53;;;;;;;;;;5012702;28;20088;-66
2021/10/05 02:15:20;;;;;;;6.82;3.00;;;;;;;;;;5012311;28;20049;-66
2021/10/05 02:18:06;;;;;;;5.40;3.45;;;;;;;;;;5012673;28;20054;-65
2021/10/05 02:20:51;;;;;;;6.00;3.03;;;;;;;;;;5012631;28;20046;-66
2021/10/05 02:24:39;;;;;;;11.02;3.30;;;;;;;;;;5012040;28;20050;-66
2021/10/05 02:26:45;;;;;;;8.93;3.40;;;;;;;;;;5008296;28;20043;-66
2021/10/05 02:29:36;;;;;;;8.02;3.35;;;;;;;;;;5001898;28;20050;-64
2021/10/05 02:32:21;;;;;;;9.90;3.60;;;;;;;;;;5012270;28;20050;-64
2021/10/05 02:35:06;;;;;;;6.68;3.42;;;;;;;;;;5012298;28;20058;-66
2021/10/05 02:37:52;;;;;;;7.32;3.60;;;;;;;;;;5012404;28;20121;-63
2021/10/05 02:40:37;;;;;;;8.70;3.67;;;;;;;;;;5011643;28;20042;-64
2021/10/05 02:43:22;;;;;;;5.30;4.10;;;;;;;;;;5011225;28;20053;-66
2021/10/05 02:46:07;;;;;;;9.63;4.22;;;;;;;;;;5011010;28;20084;-65
2021/10/05 02:48:53;;;;;;;7.22;4.22;;;;;;;;;;5012017;28;20049;-65
2021/10/05 02:51:38;;;;;;;8.10;3.78;;;;;;;;;;5012020;28;20492;-65
2021/10/05 02:54:24;;;;;;;8.77;3.92;;;;;;;;;;5012012;28;20412;-65
2021/10/05 02:57:09;;;;;;;5.35;3.50;;;;;;;;;;5012101;28;20448;-65
2021/10/05 02:59:54;;;;;;;7.50;3.50;;;;;;;;;;5010636;28;20061;-65
2021/10/05 03:02:40;;;;;;;9.48;4.13;;;;;;;;;;5011823;28;20066;-65
2021/10/05 03:05:25;;;;;;;9.38;4.68;;;;;;;;;;5011671;28;20054;-65
2021/10/05 03:08:10;;;;;;;8.20;3.78;;;;;;;;;;5012135;28;20062;-65
2021/10/05 03:10:56;;;;;;;8.40;4.50;;;;;;;;;;5012092;28;20117;-65
2021/10/05 03:13:41;;;;;;;8.32;4.00;;;;;;;;;;5011648;28;20081;-65
2021/10/05 03:16:27;;;;;;;9.13;4.50;;;;;;;;;;5014833;28;20046;-65
2021/10/05 03:19:12;;;;;;;10.23;4.75;;;;;;;;;;5015912;28;20120;-65
2021/10/05 03:21:58;;;;;;;6.85;4.60;;;;;;;;;;5015557;28;20050;-65
2021/10/05 03:24:43;;;;;;;8.48;4.82;;;;;;;;;;5015653;28;20058;-65
2021/10/05 03:27:28;;;;;;;7.30;5.00;;;;;;;;;;5003832;28;20054;-65
2021/10/05 03:30:14;;;;;;;6.80;4.85;;;;;;;;;;4996323;28;20416;-66
2021/10/05 03:32:59;;;;;;;9.93;4.70;;;;;;;;;;4996079;28;20053;-65
2021/10/05 03:35:44;;;;;;;8.45;4.88;;;;;;;;;;4995760;28;20512;-65
2021/10/05 03:38:29;;;;;;;7.68;5.63;;;;;;;;;;4995896;28;20054;-65
2021/10/05 03:41:15;;;;;;;11.13;5.47;;;;;;;;;;4995750;28;20499;-65
2021/10/05 03:44:00;;;;;;;12.32;6.20;;;;;;;;;;4995557;28;20054;-65
2021/10/05 03:46:45;;;;;;;7.57;6.13;;;;;;;;;;4995847;28;20050;-65
2021/10/05 03:49:31;;;;;;;7.93;6.10;;;;;;;;;;4995744;28;20130;-65
2021/10/05 03:52:16;;;;;;;9.85;6.90;;;;;;;;;;4995459;28;20497;-65
2021/10/05 03:55:01;;;;;;;8.32;7.03;;;;;;;;;;4995387;28;20125;-65
2021/10/05 03:57:47;;;;;;;7.63;6.78;;;;;;;;;;5006564;28;20038;-65
2021/10/05 04:00:32;;;;;;;11.10;6.88;;;;;;;;;;5013560;28;20128;-65
2021/10/05 04:03:17;;;;;;;11.98;7.05;;;;;;;;;;5014959;28;20058;-65
2021/10/05 04:06:03;;;;;;;8.48;7.40;;;;;;;;;;5014832;28;20057;-65
2021/10/05 04:08:48;;;;;;;10.45;7.93;;;;;;;;;;5014945;28;20092;-65
2021/10/05 04:11:34;;;;;;;8.30;7.22;;;;;;;;;;5014800;28;20548;-65
2021/10/05 04:14:19;;;;;;;9.35;8.13;;;;;;;;;;5014455;28;20061;-65
2021/10/05 04:17:04;;;;;;;10.32;7.72;;;;;;;;;;5014675;28;20528;-65
2021/10/05 04:19:50;;;;;;;8.73;7.80;;;;;;;;;;5014652;28;20050;-65
2021/10/05 04:22:35;;;;;;;11.57;8.35;;;;;;;;;;5014340;28;20456;-65
2021/10/05 04:25:20;;;;;;;11.52;9.02;;;;;;;;;;5014476;28;20054;-65
2021/10/05 04:28:06;;;;;;;9.90;8.68;;;;;;;;;;5002368;28;20518;-65
2021/10/05 04:30:51;;;;;;;10.52;8.25;;;;;;;;;;4994839;28;20050;-65
2021/10/05 04:33:36;;;;;;;11.50;8.52;;;;;;;;;;4994647;28;20054;-63
2021/10/05 04:36:22;;;;;;;11.23;8.60;;;;;;;;;;4994883;28;20145;-64
2021/10/05 04:39:07;;;;;;;10.05;8.73;;;;;;;;;;4993394;28;20058;-65
2021/10/05 04:41:52;;;;;;;12.55;8.65;;;;;;;;;;4979756;28;20125;-63
2021/10/05 04:44:37;;;;;;;12.23;9.10;;;;;;;;;;4993073;28;20055;-65
2021/10/05 04:47:22;;;;;;;14.45;9.13;;;;;;;;;;4994559;28;20047;-63
2021/10/05 04:50:08;;;;;;;9.60;8.15;;;;;;;;;;4994616;28;20050;-64
2021/10/05 04:52:53;;;;;;;10.80;9.25;;;;;;;;;;4993107;28;20058;-64
2021/10/05 04:55:43;;;;;;;10.40;8.73;;;;;;;;;;4994178;28;20513;-63
2021/10/05 04:58:29;;;;;;;9.38;8.38;;;;;;;;;;5012912;28;20412;-63
2021/10/05 05:01:14;;;;;;;10.18;8.52;;;;;;;;;;5013862;28;20516;-63
2021/10/05 05:03:59;;;;;;;11.90;8.75;;;;;;;;;;5013436;28;20058;-64
2021/10/05 05:06:45;;;;;;;9.25;7.97;;;;;;;;;;5014004;28;20050;-63
2021/10/05 05:09:31;;;;;;;10.02;8.05;;;;;;;;;;5013803;28;20129;-63
2021/10/05 05:12:16;;;;;;;9.77;7.50;;;;;;;;;;5013659;28;20049;-64
2021/10/05 05:15:01;;;;;;;12.30;8.75;;;;;;;;;;5013584;28;20049;-63
2021/10/05 05:17:47;;;;;;;11.25;8.63;;;;;;;;;;5013547;28;20049;-63
2021/10/05 05:20:32;;;;;;;10.10;8.38;;;;;;;;;;5012290;28;20092;-64
2021/10/05 05:23:17;;;;;;;11.13;8.48;;;;;;;;;;5012755;28;20050;-63
2021/10/05 05:26:02;;;;;;;12.43;9.30;;;;;;;;;;5011589;28;20049;-63
2021/10/05 05:28:47;;;;;;;13.40;9.50;;;;;;;;;;5010916;28;20129;-63
2021/10/05 05:31:33;;;;;;;12.15;9.10;;;;;;;;;;5012421;28;20053;-63
2021/10/05 05:34:19;;;;;;;17.02;10.45;;;;;;;;;;5010940;28;20061;-64
2021/10/05 05:37:06;;;;;;;11.70;9.02;;;;;;;;;;5011435;28;20074;-64
2021/10/05 05:39:51;;;;;;;12.88;9.68;;;;;;;;;;5010964;28;20057;-64
2021/10/05 05:42:36;;;;;;;12.27;9.65;;;;;;;;;;5012355;28;20049;-65
2021/10/05 05:45:22;;;;;;;9.90;8.55;;;;;;;;;;5012061;28;20128;-64
2021/10/05 05:48:07;;;;;;;15.80;9.50;;;;;;;;;;5012138;28;20045;-65
2021/10/05 05:50:52;;;;;;;15.95;9.65;;;;;;;;;;5012123;28;20062;-65
2021/10/05 05:53:38;;;;;;;17.55;9.90;;;;;;;;;;5011864;28;20050;-65
2021/10/05 05:56:23;;;;;;;14.15;9.95;;;;;;;;;;5007991;28;20457;-65
2021/10/05 05:59:09;;;;;;;11.25;9.45;;;;;;;;;;4992392;28;20513;-64
2021/10/05 06:01:54;;;;;;;12.60;9.32;;;;;;;;;;4993562;28;20062;-65
2021/10/05 06:04:39;;;;;;;14.02;10.30;;;;;;;;;;4992081;28;20058;-65
2021/10/05 06:07:24;;;;;;;12.00;9.40;;;;;;;;;;4992534;28;20484;-64
2021/10/05 06:10:10;;;;;;;12.40;9.98;;;;;;;;;;4992280;28;20058;-64
2021/10/05 06:12:56;;;;;;;12.20;9.15;;;;;;;;;;4992099;28;20042;-65
2021/10/05 06:15:41;;;;;;;9.60;8.55;;;;;;;;;;4992175;28;20054;-64
2021/10/05 06:18:26;;;;;;;12.93;9.05;;;;;;;;;;4992245;28;20055;-63
2021/10/05 06:21:11;;;;;;;13.05;9.35;;;;;;;;;;4992164;28;20058;-63
2021/10/05 06:23:56;;;;;;;11.70;9.35;;;;;;;;;;4955213;28;1053999;-63
2021/10/05 06:26:41;;;;;;;11.75;9.18;;;;;;;;;;4994050;28;20054;-64
2021/10/05 06:29:27;;;;;;;11.65;8.55;;;;;;;;;;4992762;28;20050;-64
2021/10/05 06:32:12;;;;;;;10.30;8.60;;;;;;;;;;4991683;28;20405;-63
2021/10/05 06:34:57;;;;;;;10.98;9.07;;;;;;;;;;4992659;28;20050;-63
2021/10/05 06:37:42;;;;;;;10.30;9.18;;;;;;;;;;4991485;28;20121;-64
2021/10/05 06:40:28;;;;;;;10.07;9.07;;;;;;;;;;4992915;28;20475;-64
2021/10/05 06:43:13;;;;;;;9.77;7.88;;;;;;;;;;4992924;28;20061;-64
2021/10/05 06:45:59;;;;;;;9.25;8.43;;;;;;;;;;4996016;28;20049;-64
2021/10/05 06:48:44;;;;;;;13.07;8.65;;;;;;;;;;5002887;28;20424;-67
2021/10/05 06:51:29;;;;;;;10.32;7.82;;;;;;;;;;5003688;28;20042;-66
2021/10/05 06:54:14;;;;;;;9.93;7.50;;;;;;;;;;5004138;28;20528;-67
2021/10/05 06:57:00;;;;;;;10.05;7.30;;;;;;;;;;5005984;28;20058;-67
2021/10/05 06:59:45;;;;;;;8.63;7.35;;;;;;;;;;5004345;28;20077;-67
2021/10/05 07:02:31;;;;;;;8.73;7.63;;;;;;;;;;5007358;28;20086;-67
2021/10/05 07:05:16;;;;;;;9.18;6.75;;;;;;;;;;5000536;28;20117;-67
2021/10/05 07:08:05;;;;;;;8.18;6.65;;;;;;;;;;5003553;28;20046;-67
2021/10/05 07:10:50;;;;;;;9.98;7.55;;;;;;;;;;5004398;28;20081;-67
2021/10/05 07:13:38;;;;;;;7.80;6.55;;;;;;;;;;5003610;28;20807;-67
2021/10/05 07:16:23;;;;;;;15.02;7.38;;;;;;;;;;5008130;28;20074;-66
2021/10/05 07:19:09;;;;;;;7.18;6.22;;;;;;;;;;5006955;28;20458;-67
2021/10/05 07:21:54;;;;;;;7.18;6.40;;;;;;;;;;5004538;28;20054;-67
2021/10/05 07:24:39;;;;;;;6.40;5.80;;;;;;;;;;5003243;28;20049;-66
2021/10/05 07:27:25;;;;;;;8.43;5.55;;;;;;;;;;5006105;28;20054;-66
2021/10/05 07:30:10;;;;;;;6.10;5.38;;;;;;;;;;5002701;28;20050;-65
2021/10/05 07:33:01;;;;;;;6.40;5.80;;;;;;;;;;5003763;28;20045;-66
2021/10/05 07:35:46;;;;;;;5.53;5.03;;;;;;;;;;5004106;28;20045;-66
2021/10/05 07:38:32;;;;;;;5.68;4.78;;;;;;;;;;4998375;28;20505;-63
2021/10/05 07:41:17;;;;;;;5.20;4.70;;;;;;;;;;4995940;28;20054;-64
2021/10/05 07:44:02;;;;;;;5.22;4.15;;;;;;;;;;4994092;28;20058;-63
2021/10/05 07:46:48;;;;;;;5.57;4.93;;;;;;;;;;4996768;28;20050;-63
2021/10/05 07:49:33;;;;;;;5.90;5.07;;;;;;;;;;4995776;28;20050;-63
2021/10/05 07:52:18;;;;;;;6.45;4.68;;;;;;;;;;5008170;28;20050;-63
2021/10/05 07:55:04;;;;;;;5.22;4.72;;;;;;;;;;4995245;28;20055;-63
2021/10/05 07:57:49;;;;;;;5.10;4.28;;;;;;;;;;4995840;28;20086;-63
2021/10/05 08:00:35;;;;;;;6.18;4.10;;;;;;;;;;4995572;28;20054;-63
2021/10/05 08:03:20;;;;;;;6.05;4.13;;;;;;;;;;4994087;28;20398;-63
2021/10/05 08:06:06;;;;;;;4.90;4.30;;;;;;;;;;4995577;28;20050;-64
2021/10/05 08:08:51;;;;;;;5.82;4.00;;;;;;;;;;4995365;28;20054;-63
2021/10/05 08:11:36;;;;;;;4.70;4.10;;;;;;;;;;4995251;28;20058;-63
2021/10/05 08:14:21;;;;;;;4.60;4.20;;;;;;;;;;4995078;28;20464;-65
2021/10/05 08:17:07;;;;;;;5.60;4.07;;;;;;;;;;5009459;28;20051;-63
2021/10/05 08:19:52;;;;;;;4.60;4.18;;;;;;;;;;5014693;28;20092;-63
2021/10/05 08:22:37;;;;;;;5.68;4.28;;;;;;;;;;5014597;28;20054;-63
2021/10/05 08:25:23;;;;;;;9.57;5.05;;;;;;;;;;5014447;28;20046;-63
2021/10/05 08:28:08;;;;;;;7.28;3.90;;;;;;;;;;5014438;28;20504;-63
2021/10/05 08:30:54;;;;;;;5.00;4.03;;;;;;;;;;5014363;28;20054;-65
2021/10/05 08:33:39;;;;;;;5.35;3.53;;;;;;;;;;5014187;28;20049;-63
2021/10/05 08:36:24;;;;;;;6.35;3.70;;;;;;;;;;5013070;28;20050;-64
2021/10/05 08:39:10;;;;;;;6.78;4.15;;;;;;;;;;5013042;28;20061;-63
2021/10/05 08:41:55;;;;;;;5.50;3.78;;;;;;;;;;5014331;28;20058;-63
2021/10/05 08:44:40;;;;;;;4.13;3.70;;;;;;;;;;5013007;28;20057;-64
2021/10/05 08:47:27;;;;;;;3.90;3.17;;;;;;;;;;4994771;28;20054;-63
2021/10/05 08:50:13;;;;;;;4.90;3.80;;;;;;;;;;4994485;28;20485;-63
2021/10/05 08:52:58;;;;;;;3.75;3.20;;;;;;;;;;4994413;28;20054;-63
2021/10/05 08:55:43;;;;;;;6.10;3.47;;;;;;;;;;4992863;28;20058;-63
2021/10/05 08:58:29;;;;;;;4.80;2.97;;;;;;;;;;4993233;28;20058;-64
2021/10/05 09:01:14;;;;;;;3.35;3.05;;;;;;;;;;4994417;28;20054;-66
2021/10/05 09:03:59;;;;;;;3.63;2.92;;;;;;;;;;4992903;28;20137;-63
2021/10/05 09:06:51;;;;;;;4.90;3.08;;;;;;;;;;4994418;28;20058;-64
2021/10/05 09:09:37;;;;;;;6.03;3.47;;;;;;;;;;4993127;28;20050;-66
2021/10/05 09:12:31;;;;;;;3.78;3.13;;;;;;;;;;4992462;28;20125;-63
2021/10/05 09:15:18;;;;;;;7.05;3.13;;;;;;;;;;4994968;28;20126;-63
2021/10/05 09:18:03;;;;;;;3.97;2.97;;;;;;;;;;4994118;28;20050;-65
2021/10/05 09:20:49;;;;;;;4.75;3.00;;;;;;;;;;4993057;28;20054;-64
2021/10/05 09:23:35;;;;;;;3.55;3.25;;;;;;;;;;4992522;28;20058;-64
2021/10/05 09:26:20;;;;;;;2.88;2.63;;;;;;;;;;4993793;28;20505;-64
2021/10/05 09:29:09;;;;;;;2.50;2.30;;;;;;;;;;4994114;28;20077;-65
2021/10/05 09:32:04;;;;;;;3.30;2.35;;;;;;;;;;5107755;22;20040;-64
2021/10/05 09:34:50;;;;;;;4.22;2.83;;;;;;;;;;5072717;28;20044;-64
2021/10/05 09:37:36;;;;;;;2.90;2.60;;;;;;;;;;5073122;28;20044;-64
2021/10/05 09:40:21;;;;;;;4.10;2.95;;;;;;;;;;5072897;28;20088;-64
2021/10/05 09:43:14;;;;;;;3.58;2.63;;;;;;;;;;5072834;28;20064;-64
2021/10/05 09:46:15;;;;;;;4.00;2.20;;;;;;;;;;5071468;28;20414;-64
2021/10/05 09:49:02;;;;;;;3.08;2.65;;;;;;;;;;5072995;28;20052;-64
2021/10/05 09:51:56;;;;;;;3.17;2.50;;;;;;;;;;5072376;28;20048;-64
2021/10/05 09:54:40;;;;;;;3.65;2.25;;;;;;;;;;5072522;28;20049;-64
2021/10/05 09:57:26;;;;;;;3.53;2.50;;;;;;;;;;5072410;28;20048;-64
2021/10/05 10:00:12;;;;;;;3.25;2.35;;;;;;;;;;5067177;28;20053;-64
2021/10/05 10:02:58;;;;;;;2.70;2.30;;;;;;;;;;5052217;28;20052;-64
2021/10/05 10:05:44;;;;;;;3.17;2.40;;;;;;;;;;5052014;28;20068;-64
2021/10/05 10:08:31;;;;;;;3.03;2.28;;;;;;;;;;5052226;28;20053;-64
2021/10/05 10:11:16;;;;;;;3.05;2.05;;;;;;;;;;5051123;28;20057;-64
2021/10/05 10:14:02;;;;;;;4.65;2.35;;;;;;;;;;5052057;28;20048;-64
2021/10/05 10:16:49;;;;;;;4.47;2.10;;;;;;;;;;5052101;28;20049;-64
2021/10/05 10:19:36;;;;;;;3.97;2.25;;;;;;;;;;5051197;28;20045;-64
2021/10/05 10:22:21;;;;;;;4.25;1.98;;;;;;;;;;5052004;28;20565;-64
2021/10/05 10:25:07;;;;;;;2.88;2.50;;;;;;;;;;5051691;28;20049;-64
2021/10/05 10:27:56;;;;;;;3.45;2.08;;;;;;;;;;5051795;28;20503;-64
2021/10/05 10:30:51;;;;;;;3.83;1.63;;;;;;;;;;5056987;28;20041;-64
2021/10/05 10:33:43;;;;;;;3.67;2.28;;;;;;;;;;5071531;28;20053;-64
2021/10/05 10:36:41;;;;;;;3.63;2.05;;;;;;;;;;5071851;28;20049;-64
2021/10/05 10:39:36;;;;;;;5.78;1.60;;;;;;;;;;5071829;28;20078;-64
2021/10/05 10:42:28;;;;;;;3.05;1.77;;;;;;;;;;5070255;28;20056;-64
2021/10/05 10:45:17;;;;;;;3.55;1.83;;;;;;;;;;5069708;28;20052;-65
2021/10/05 10:48:02;;;;;;;3.78;1.55;;;;;;;;;;5071266;28;20084;-64
2021/10/05 10:50:48;;;;;;;1.95;1.50;;;;;;;;;;5071411;28;20056;-65
2021/10/05 10:53:37;;;;;;;4.32;2.13;;;;;;;;;;5071500;28;20041;-65
2021/10/05 10:56:29;;;;;;;3.55;1.70;;;;;;;;;;5071503;28;20048;-64
2021/10/05 10:59:15;;;;;;;9.05;2.85;;;;;;;;;;5071844;28;20052;-65
2021/10/05 11:02:01;;;;;;;3.00;2.05;;;;;;;;;;5071627;28;20048;-64
2021/10/05 11:04:46;;;;;;;2.88;1.80;;;;;;;;;;5071277;28;20088;-64
2021/10/05 11:07:32;;;;;;;3.60;1.80;;;;;;;;;;5071518;28;20052;-64
2021/10/05 11:10:17;;;;;;;6.38;2.60;;;;;;;;;;5071317;28;20128;-65
2021/10/05 11:13:03;;;;;;;2.60;1.65;;;;;;;;;;5071307;28;20475;-64
2021/10/05 11:15:49;;;;;;;3.28;2.22;;;;;;;;;;5071141;28;20049;-64
2021/10/05 11:18:34;;;;;;;2.63;1.50;;;;;;;;;;5071444;28;20506;-64
2021/10/05 11:21:30;;;;;;;5.32;1.40;;;;;;;;;;5071289;28;20057;-65
2021/10/05 11:24:16;;;;;;;2.92;1.40;;;;;;;;;;5070989;28;20575;-65
2021/10/05 11:27:01;;;;;;;5.82;2.25;;;;;;;;;;5071302;28;20057;-64
2021/10/05 11:29:46;;;;;;;4.63;1.30;;;;;;;;;;5071072;28;20119;-64
2021/10/05 11:32:32;;;;;;;2.58;1.23;;;;;;;;;;5071369;28;20052;-64
2021/10/05 11:35:18;;;;;;;3.90;1.35;;;;;;;;;;5070934;28;20052;-64
2021/10/05 11:38:03;;;;;;;3.00;1.00;;;;;;;;;;5074714;28;20053;-64
2021/10/05 11:40:57;;;;;;;1.48;0.85;;;;;;;;;;5074044;28;20044;-64
2021/10/05 11:43:46;;;;;;;2.55;0.98;;;;;;;;;;5074739;28;20418;-64
2021/10/05 11:46:31;;;;;;;2.60;1.10;;;;;;;;;;5074507;28;20041;-64
2021/10/05 11:49:19;;;;;;;2.25;1.13;;;;;;;;;;5074930;28;20053;-64
2021/10/05 11:52:05;;;;;;;3.97;1.60;;;;;;;;;;5074583;28;20048;-64
2021/10/05 11:54:50;;;;;;;1.85;1.45;;;;;;;;;;5074619;28;20052;-64
2021/10/05 11:57:37;;;;;;;3.25;1.13;;;;;;;;;;5074969;28;20076;-64
2021/10/05 12:00:22;;;;;;;4.43;1.17;;;;;;;;;;5074432;28;20056;-64
2021/10/05 12:03:07;;;;;;;1.90;1.15;;;;;;;;;;5074457;28;20049;-64
2021/10/05 12:05:57;;;;;;;3.63;1.52;;;;;;;;;;5073641;28;20064;-64
2021/10/05 12:08:46;;;;;;;2.20;1.00;;;;;;;;;;5074473;28;20124;-64
2021/10/05 12:11:44;;;;;;;3.22;1.08;;;;;;;;;;5074448;28;20048;-64
2021/10/05 12:14:33;;;;;;;2.60;1.20;;;;;;;;;;5074243;28;20040;-64
2021/10/05 12:17:18;;;;;;;3.65;1.10;;;;;;;;;;5056886;28;20088;-64
2021/10/05 12:20:05;;;;;;;3.05;1.40;;;;;;;;;;5065540;28;20506;-64
2021/10/05 12:22:50;;;;;;;2.58;1.30;;;;;;;;;;5063754;28;20112;-64
2021/10/05 12:25:38;;;;;;;2.42;1.40;;;;;;;;;;5064180;28;20045;-64
2021/10/05 12:28:23;;;;;;;2.35;1.20;;;;;;;;;;5067081;28;20052;-64
2021/10/05 12:31:15;;;;;;;6.00;1.40;;;;;;;;;;5073609;28;20098;-64
2021/10/05 12:34:00;;;;;;;2.90;0.95;;;;;;;;;;5073938;28;20052;-64
2021/10/05 12:36:46;;;;;;;4.63;1.50;;;;;;;;;;5074227;28;20044;-64
2021/10/05 12:39:31;;;;;;;3.50;1.05;;;;;;;;;;5073120;28;20052;-64
2021/10/05 12:42:16;;;;;;;3.35;1.33;;;;;;;;;;5074042;28;20418;-64
2021/10/05 12:45:02;;;;;;;3.88;1.42;;;;;;;;;;5054263;28;20049;-64
2021/10/05 12:47:51;;;;;;;2.67;1.08;;;;;;;;;;5052920;28;20053;-64
2021/10/05 12:50:40;;;;;;;2.55;0.93;;;;;;;;;;5053952;28;20052;-64
2021/10/05 12:53:25;;;;;;;3.45;0.88;;;;;;;;;;5053572;28;20527;-64
2021/10/05 12:56:11;;;;;;;3.75;1.25;;;;;;;;;;5053771;28;20123;-64
2021/10/05 12:58:56;;;;;;;5.38;1.20;;;;;;;;;;5053463;28;20503;-64
2021/10/05 13:01:42;;;;;;;4.57;1.30;;;;;;;;;;5053297;28;20507;-64
2021/10/05 13:04:27;;;;;;;4.05;1.25;;;;;;;;;;5053112;28;20423;-64
2021/10/05 13:07:12;;;;;;;2.72;1.02;;;;;;;;;;5053368;28;20045;-64
2021/10/05 13:09:58;;;;;;;3.30;1.25;;;;;;;;;;5053679;28;20132;-64
2021/10/05 13:12:43;;;;;;;3.80;1.00;;;;;;;;;;5073398;28;20048;-64
2021/10/05 13:15:29;;;;;;;2.22;1.10;;;;;;;;;;5071357;28;20056;-64
2021/10/05 13:18:14;;;;;;;2.78;1.10;;;;;;;;;;5073457;28;20099;-64
2021/10/05 13:20:59;;;;;;;2.17;0.98;;;;;;;;;;5073028;28;20049;-64
2021/10/05 13:23:45;;;;;;;3.85;1.10;;;;;;;;;;5072718;28;20498;-64
2021/10/05 13:26:30;;;;;;;3.15;0.88;;;;;;;;;;5071168;28;20056;-64
2021/10/05 13:29:15;;;;;;;2.90;0.90;;;;;;;;;;5072832;28;20418;-64
2021/10/05 13:32:01;;;;;;;2.95;0.60;;;;;;;;;;5072473;28;20048;-64
2021/10/05 13:34:47;;;;;;;3.47;0.60;;;;;;;;;;5072464;28;20651;-64
2021/10/05 13:37:32;;;;;;;2.80;0.90;;;;;;;;;;5072852;28;20418;-64
2021/10/05 13:40:18;;;;;;;1.95;0.75;;;;;;;;;;5072728;28;20281;-64
2021/10/05 13:43:03;;;;;;;3.17;1.10;;;;;;;;;;5072594;28;20080;-64
2021/10/05 13:45:49;;;;;;;2.92;0.75;;;;;;;;;;5065641;28;20049;-63
2021/10/05 13:48:34;;;;;;;2.65;1.20;;;;;;;;;;5051947;28;20053;-64
2021/10/05 13:51:19;;;;;;;1.92;0.80;;;;;;;;;;5052359;28;20406;-64
2021/10/05 13:54:04;;;;;;;2.67;0.90;;;;;;;;;;5052472;28;20049;-64
2021/10/05 13:56:50;;;;;;;2.42;0.90;;;;;;;;;;5052562;28;20053;-64
2021/10/05 13:59:35;;;;;;;2.20;0.65;;;;;;;;;;5052082;28;20064;-64
2021/10/05 14:02:20;;;;;;;3.83;0.95;;;;;;;;;;5052543;28;20057;-64
2021/10/05 14:05:06;;;;;;;2.92;0.80;;;;;;;;;;5052225;28;20064;-64
2021/10/05 14:07:51;;;;;;;3.22;0.70;;;;;;;;;;5052300;28;20088;-64
2021/10/05 14:10:37;;;;;;;2.40;0.70;;;;;;;;;;5052299;28;20049;-64
2021/10/05 14:13:22;;;;;;;2.60;0.70;;;;;;;;;;5052327;28;20049;-64
2021/10/05 14:16:07;;;;;;;2.80;0.65;;;;;;;;;;5057987;28;20049;-64
2021/10/05 14:18:53;;;;;;;2.58;0.85;;;;;;;;;;5072304;28;20115;-64
2021/10/05 14:21:38;;;;;;;3.25;0.70;;;;;;;;;;5072095;28;20581;-64
2021/10/05 14:24:23;;;;;;;3.88;0.65;;;;;;;;;;5071975;28;20049;-63
2021/10/05 14:27:09;;;;;;;2.45;0.80;;;;;;;;;;5072070;28;20503;-65
2021/10/05 14:29:57;;;;;;;3.72;0.90;;;;;;;;;;5071972;28;20056;-64
2021/10/05 14:32:43;;;;;;;5.28;1.00;;;;;;;;;;5071901;28;20498;-64
2021/10/05 14:35:28;;;;;;;3.58;0.70;;;;;;;;;;5071916;28;20075;-64
2021/10/05 14:38:13;;;;;;;4.20;1.00;;;;;;;;;;5071933;28;20510;-65
2021/10/05 14:40:59;;;;;;;2.80;1.10;;;;;;;;;;5071950;28;20060;-65
2021/10/05 14:43:44;;;;;;;3.55;0.93;;;;;;;;;;5071980;28;20052;-65
2021/10/05 14:46:30;;;;;;;3.65;0.75;;;;;;;;;;5070406;28;20124;-65
2021/10/05 14:49:16;;;;;;;1.85;0.93;;;;;;;;;;5071735;28;20094;-65
2021/10/05 14:52:01;;;;;;;2.95;0.88;;;;;;;;;;5070647;28;20057;-64
2021/10/05 14:54:47;;;;;;;4.22;0.80;;;;;;;;;;5070759;28;20414;-64
2021/10/05 14:57:32;;;;;;;3.28;1.10;;;;;;;;;;5071978;28;20044;-64
2021/10/05 15:00:17;;;;;;;4.15;0.93;;;;;;;;;;5071599;28;20123;-65
2021/10/05 15:03:03;;;;;;;6.53;0.90;;;;;;;;;;5071861;28;20048;-64
2021/10/05 15:05:48;;;;;;;2.60;1.15;;;;;;;;;;5071583;28;20061;-65
2021/10/05 15:08:33;;;;;;;2.30;0.88;;;;;;;;;;5071630;28;20056;-65
2021/10/05 15:11:19;;;;;;;1.77;0.90;;;;;;;;;;5072564;28;20123;-64
2021/10/05 15:14:04;;;;;;;4.07;1.75;;;;;;;;;;5075523;28;20048;-65
2021/10/05 15:16:49;;;;;;;6.93;1.52;;;;;;;;;;5070362;28;20053;-64
2021/10/05 15:19:34;;;;;;;3.17;1.33;;;;;;;;;;5059999;28;20128;-63
2021/10/05 15:22:20;;;;;;;2.65;1.40;;;;;;;;;;5064401;28;20054;-64
2021/10/05 15:25:05;;;;;;;3.85;1.40;;;;;;;;;;5071333;28;20052;-64
2021/10/05 15:27:50;;;;;;;5.20;1.60;;;;;;;;;;5055463;28;20049;-65
2021/10/05 15:33:29;;;;;;;5.18;2.03;;;;;;;;;;5013076;28;20049;-66
2021/10/05 15:36:18;;;;;;;4.57;1.55;;;;;;;;;;5015611;28;20080;-65
2021/10/05 15:39:03;;;;;;;3.22;2.00;;;;;;;;;;5015447;28;20042;-65
2021/10/05 15:41:48;;;;;;;4.68;1.85;;;;;;;;;;5015114;28;20124;-65
2021/10/05 15:44:34;;;;;;;6.82;2.40;;;;;;;;;;5015220;28;20054;-65
2021/10/05 15:47:19;;;;;;;3.70;1.48;;;;;;;;;;4986843;28;20069;-64
2021/10/05 15:50:08;;;;;;;4.97;1.95;;;;;;;;;;4995331;28;20101;-64
2021/10/05 15:52:53;;;;;;;3.33;1.90;;;;;;;;;;4995494;28;20054;-64
2021/10/05 15:55:38;;;;;;;4.18;2.40;;;;;;;;;;5006389;28;20042;-64
2021/10/05 15:58:24;;;;;;;7.72;2.30;;;;;;;;;;5006357;28;20054;-65
2021/10/05 16:01:09;;;;;;;6.20;2.13;;;;;;;;;;5006404;28;20050;-64
2021/10/05 16:03:54;;;;;;;4.32;2.00;;;;;;;;;;5006115;28;20125;-64
2021/10/05 16:06:40;;;;;;;4.15;1.80;;;;;;;;;;5014692;28;20053;-65
2021/10/05 16:09:25;;;;;;;5.32;1.77;;;;;;;;;;5014928;28;20061;-65
2021/10/05 16:12:10;;;;;;;3.95;2.08;;;;;;;;;;5014614;28;20125;-65
2021/10/05 16:14:55;;;;;;;8.30;2.20;;;;;;;;;;5014411;28;20100;-65
2021/10/05 16:17:41;;;;;;;6.70;2.30;;;;;;;;;;5001600;28;20050;-65
2021/10/05 16:20:27;;;;;;;4.70;1.70;;;;;;;;;;4994960;28;20086;-64
2021/10/05 16:23:12;;;;;;;5.05;1.80;;;;;;;;;;4994124;28;20402;-65
2021/10/05 16:25:58;;;;;;;4.43;2.10;;;;;;;;;;4977153;28;20054;-63
2021/10/05 16:28:43;;;;;;;3.50;1.83;;;;;;;;;;5004042;28;20054;-64
2021/10/05 16:31:28;;;;;;;4.57;2.00;;;;;;;;;;5019441;28;20508;-65
2021/10/05 16:34:13;;;;;;;3.83;1.58;;;;;;;;;;5006396;28;20053;-63